Airfield :
LOGIN :

Register | Disclaimer

   EN    FR    IT 

 










Legend :    VFR   Marginal VFR   IFR   Intensive IFR   Very Intensive IFR
Visi :
Ceiling :
>= 8 km
>= 3000ft
5 to 8 km
1000 to 3000 ft
1500m to 5 km
500 to 1000 ft
800 to 1500m
200 to 500 ft
< 800m
< 200 ft
Symbols :   Thunderstorms  Fog  Heavy snow  Heavy precipitations  Wind > 20 kt
SIGMETs :     Misc.  Thunderstorms  Icing  Turbulence  Mountain Waves  Volcanic Ashes






- Airport Elevation : 228 ft
- IATA code : OPO


LPPR - Porto Fr. Sa Carneiro

CURRENT METAR :
  • 121030Z 16003KT 100V200 9999 SCT020 BKN030 12/09 Q1020

EXPIRED METARs :
  • 121000Z 13004KT 9999 SCT022 BKN045 11/08 Q1020
  • 120930Z 14006KT 9999 FEW025 BKN045 10/08 Q1020
  • 120900Z 13006KT 9999 FEW025 BKN045 10/08 Q1021
  • 120830Z 12007KT 9999 BKN030 10/08 Q1020
  • 120800Z 12007KT 9999 SCT040 09/07 Q1020

TAF TAF LPPR
Valid from the 12 at 06:00 until the 13 at 06:00 UTC


120500Z 1206/1306 VRB03KT CAVOK
BECMG 1206/1209 12007KT 9999 BKN035
BECMG 1210/1213 19010KT 5000 -RA BR SCT005 BKN010
BECMG 1216/1219 26013KT
TEMPO 1219/1302 26020G32KT 2000 RADZ BR BKN002
BECMG 1302/1305 31012KT 9999 NSW SCT008 SCT012



MET'MAP, your aeronautical weather chart ! - Copyright ORBIFLY December 2007 - Disclaimer

ORBIFLY MET'MAP TEAM :

Programming & Development : Alexandra Zaïnal
Concept & Development : Baudouin d'Aumeries
Co-Development & Prog : Marc-Olivier Méhu
Technical & hardware support : Manuel Goepfert

Contact : metmap@orbifly.com




SOURCES & CREDITS :

   NOAA